createdAt,value
2024-04-15T00:00:03.177Z,1007.865173
2024-04-15T00:05:02.485Z,1007.790833
2024-04-15T00:10:02.878Z,1007.809387
2024-04-15T00:15:02.190Z,1007.791077
2024-04-15T00:20:02.624Z,1007.653748
2024-04-15T00:25:03.000Z,1007.567322
2024-04-15T00:30:02.289Z,1007.510132
2024-04-15T00:35:02.628Z,1007.448608
2024-04-15T00:40:02.939Z,1007.389038
2024-04-15T00:45:02.512Z,1007.342346
2024-04-15T00:50:02.772Z,1007.378723
2024-04-15T00:55:03.091Z,1007.268616
2024-04-15T01:00:02.314Z,1007.262329
2024-04-15T01:05:02.620Z,1007.190613
2024-04-15T01:10:02.975Z,1007.035461
2024-04-15T01:15:02.292Z,1006.993835
2024-04-15T01:20:02.611Z,1006.799988
2024-04-15T01:25:02.972Z,1006.719299
2024-04-15T01:30:02.293Z,1006.525696
2024-04-15T01:35:02.644Z,1006.397827
2024-04-15T01:40:03.177Z,1006.231567
2024-04-15T01:45:02.506Z,1006.194519
2024-04-15T01:50:02.788Z,1006.033813
2024-04-15T01:55:03.143Z,1005.898804
2024-04-15T02:00:02.367Z,1005.689697
2024-04-15T02:05:02.661Z,1005.491272
2024-04-15T02:10:02.928Z,1005.45813
2024-04-15T02:15:02.167Z,1005.480164
2024-04-15T02:20:02.527Z,1005.320496
2024-04-15T02:25:02.824Z,1005.169678
2024-04-15T02:30:03.097Z,1005.171692
2024-04-15T02:35:02.362Z,1005.028564
2024-04-15T02:40:02.635Z,1005.119873
2024-04-15T02:45:02.912Z,1005.089355
2024-04-15T02:50:02.241Z,1005.125793
2024-04-15T02:55:02.575Z,1004.994873
2024-04-15T03:00:02.837Z,1004.86969
2024-04-15T03:05:03.248Z,1004.75708
2024-04-15T03:10:02.655Z,1004.740051
2024-04-15T03:15:02.987Z,1004.701904
2024-04-15T03:20:02.487Z,1004.581543
2024-04-15T03:25:02.828Z,1004.499207
2024-04-15T03:30:03.089Z,1004.391785
2024-04-15T03:35:02.374Z,1004.410339
2024-04-15T03:40:02.827Z,1004.370178
2024-04-15T03:45:03.127Z,1004.334351
2024-04-15T03:50:02.444Z,1004.243652
2024-04-15T03:55:02.842Z,1004.178101
2024-04-15T04:00:03.229Z,1004.115784
2024-04-15T04:05:02.603Z,1004.024048
2024-04-15T04:10:03.076Z,1003.973145
2024-04-15T04:15:02.651Z,1003.937683
2024-04-15T04:20:03.021Z,1003.866699
2024-04-15T04:25:02.392Z,1003.816589
2024-04-15T04:30:02.693Z,1003.74823
2024-04-15T04:35:02.946Z,1003.709717
2024-04-15T04:40:02.441Z,1003.658691
2024-04-15T04:45:02.699Z,1003.560791
2024-04-15T04:50:02.959Z,1003.496094
2024-04-15T04:55:02.304Z,1003.427979
2024-04-15T05:00:02.604Z,1003.282349
2024-04-15T05:05:02.870Z,1003.216614
2024-04-15T05:10:03.327Z,1003.169556
2024-04-15T05:15:02.873Z,1003.158203
2024-04-15T05:20:02.136Z,1003.029602
2024-04-15T05:25:02.489Z,1003.024048
2024-04-15T05:30:02.799Z,1002.89563
2024-04-15T05:35:03.083Z,1002.912964
2024-04-15T05:40:02.454Z,1002.874695
2024-04-15T05:45:02.750Z,1002.825806
2024-04-15T05:50:03.050Z,1002.575134
2024-04-15T05:55:02.393Z,1002.741089
2024-04-15T06:00:02.777Z,1002.582031
2024-04-15T06:05:02.170Z,1002.607178
2024-04-15T06:10:02.499Z,1002.596741
2024-04-15T06:15:02.830Z,1002.436584
2024-04-15T06:20:03.162Z,1002.506592
2024-04-15T06:25:02.504Z,1002.375
2024-04-15T06:30:02.845Z,1002.399841
2024-04-15T06:35:03.132Z,1002.212708
2024-04-15T06:40:02.515Z,1002.121704
2024-04-15T06:45:02.882Z,1002.079834
2024-04-15T06:50:03.151Z,1001.991394
2024-04-15T06:55:05.332Z,1002.009827
2024-04-15T07:00:02.692Z,1001.797729
2024-04-15T07:05:03.089Z,1001.811401
2024-04-15T07:10:02.473Z,1001.687012
2024-04-15T07:15:02.771Z,1001.679504
2024-04-15T07:20:03.102Z,1001.736267
2024-04-15T07:25:02.399Z,1001.584595
2024-04-15T07:30:02.696Z,1001.575928
2024-04-15T07:35:02.999Z,1001.490967
2024-04-15T07:40:03.635Z,1001.276733
2024-04-15T07:45:02.461Z,1001.365845
2024-04-15T07:50:02.794Z,1001.260132
2024-04-15T07:55:03.178Z,1001.179504
2024-04-15T08:00:02.501Z,1001.200317
2024-04-15T08:05:02.918Z,1001.126099
2024-04-15T08:10:02.282Z,1001.024475
2024-04-15T08:15:02.686Z,1001.025635
2024-04-15T08:20:02.984Z,1000.953857
2024-04-15T08:25:02.366Z,1000.878906
2024-04-15T08:30:02.712Z,1000.647339
2024-04-15T08:35:03.058Z,1000.456116
2024-04-15T08:40:02.350Z,1000.333252
2024-04-15T08:45:02.666Z,1000.395447
2024-04-15T08:50:02.982Z,1000.132507
2024-04-15T08:55:02.285Z,1000.164612
2024-04-15T09:00:02.613Z,999.9995117
2024-04-15T09:05:03.150Z,999.6884155
2024-04-15T09:10:02.540Z,999.6813965
2024-04-15T09:15:02.843Z,999.6425781
2024-04-15T09:20:03.160Z,999.4620361
2024-04-15T09:25:02.463Z,999.4046631
2024-04-15T09:30:02.812Z,999.2224121
2024-04-15T09:35:03.204Z,999.2834473
2024-04-15T09:40:02.587Z,999.319519
2024-04-15T09:45:02.964Z,999.0356445
2024-04-15T09:50:02.279Z,998.7909546
2024-04-15T09:55:02.894Z,998.6265869
2024-04-15T10:00:02.185Z,998.5510864
2024-04-15T10:05:02.626Z,998.3876343
2024-04-15T10:10:03.278Z,998.2756348
2024-04-15T10:15:02.625Z,998.2324829
2024-04-15T10:20:03.136Z,998.1745605
2024-04-15T10:25:02.807Z,997.8410645
2024-04-15T10:30:03.131Z,998.0015869
2024-04-15T10:35:03.190Z,997.9073486
2024-04-15T10:40:02.660Z,997.8308105
2024-04-15T10:45:03.092Z,997.6574707
2024-04-15T10:50:02.368Z,997.7223511
2024-04-15T10:55:02.750Z,997.5317383
2024-04-15T11:00:03.042Z,997.2915039
2024-04-15T11:05:02.392Z,997.1542358
2024-04-15T11:10:02.793Z,997.0296631
2024-04-15T11:15:03.102Z,996.946228
2024-04-15T11:20:02.416Z,996.74823
2024-04-15T11:25:02.848Z,996.4459229
2024-04-15T11:30:04.901Z,996.4033813
2024-04-15T11:35:02.740Z,995.5045166
2024-04-15T11:40:03.049Z,995.9659424
2024-04-15T11:45:02.313Z,995.6174927
2024-04-15T11:50:02.652Z,995.7112427
2024-04-15T11:55:03.006Z,995.3141479
2024-04-15T12:00:02.268Z,995.3630981
2024-04-15T12:05:02.949Z,995.2703857
2024-04-15T12:10:02.400Z,994.9987793
2024-04-15T12:15:04.745Z,994.9963989
2024-04-15T12:20:02.352Z,994.7451782
2024-04-15T12:25:08.075Z,994.4812622
2024-04-15T12:30:02.902Z,994.2402954
2024-04-15T12:35:02.128Z,994.3692017
2024-04-15T12:40:02.480Z,994.1535645
2024-04-15T12:45:02.767Z,994.0554199
2024-04-15T12:50:03.032Z,993.97052
2024-04-15T12:55:02.406Z,993.869873
2024-04-15T13:00:02.759Z,993.8869019
2024-04-15T13:05:03.176Z,993.5905762
2024-04-15T13:10:02.585Z,993.475769
2024-04-15T13:15:02.877Z,993.2127075
2024-04-15T13:20:02.122Z,993.0220337
2024-04-15T13:25:02.438Z,993.0421753
2024-04-15T13:30:02.785Z,992.8206177
2024-04-15T13:35:02.331Z,992.7790527
2024-04-15T13:40:03.126Z,992.4701538
2024-04-15T13:45:02.413Z,992.3634644
2024-04-15T13:50:02.749Z,992.1878052
2024-04-15T13:55:03.052Z,992.4777832
2024-04-15T14:00:02.432Z,992.3890381
2024-04-15T14:05:02.987Z,992.4667358
2024-04-15T14:10:02.426Z,992.319519
2024-04-15T14:15:02.810Z,992.3967285
2024-04-15T14:20:03.148Z,992.1879883
2024-04-15T14:25:02.535Z,992.055603
2024-04-15T14:30:02.906Z,991.8398438
2024-04-15T14:35:03.108Z,991.6931152
2024-04-15T14:40:12.265Z,991.6595459
2024-04-15T14:45:03.186Z,991.4916992
2024-04-15T14:50:02.503Z,991.1853638
2024-04-15T14:55:02.817Z,990.8390503
2024-04-15T15:00:03.365Z,990.7542114
2024-04-15T15:05:02.638Z,990.3634644
2024-04-15T15:10:02.929Z,990.2798462
2024-04-15T15:15:02.196Z,990.1489258
2024-04-15T15:20:02.509Z,990.0951538
2024-04-15T15:25:04.615Z,989.826416
2024-04-15T15:30:02.952Z,989.9706421
2024-04-15T15:35:02.192Z,990.9343872
2024-04-15T15:40:02.510Z,991.276123
2024-04-15T15:45:02.842Z,991.7091675
2024-04-15T15:50:03.207Z,992.2288818
2024-04-15T15:55:02.531Z,991.6433105
2024-04-15T16:00:03.027Z,991.552002
2024-04-15T16:05:02.390Z,991.5923462
2024-04-15T16:10:02.690Z,991.1379395
2024-04-15T16:15:02.973Z,991.0356445
2024-04-15T16:20:02.384Z,991.6518555
2024-04-15T16:25:02.748Z,991.6132813
2024-04-15T16:30:03.045Z,991.539978
2024-04-15T16:35:02.331Z,991.704834
2024-04-15T16:40:02.639Z,991.6190796
2024-04-15T16:45:03.034Z,991.8602905
2024-04-15T16:50:02.595Z,991.7351685
2024-04-15T16:55:02.902Z,992.0211792
2024-04-15T17:00:02.366Z,991.90448
2024-04-15T17:05:02.618Z,991.9667358
2024-04-15T17:10:02.954Z,992.100769
2024-04-15T17:15:02.442Z,991.9857788
2024-04-15T17:20:02.720Z,992.0113525
2024-04-15T17:25:02.996Z,991.8284302
2024-04-15T17:30:02.314Z,991.5901489
2024-04-15T17:35:02.546Z,992.0315552
2024-04-15T17:40:02.891Z,992.3621826
2024-04-15T17:45:02.228Z,992.3250732
2024-04-15T17:50:02.496Z,992.5256958
2024-04-15T17:55:02.978Z,992.4771729
2024-04-15T18:00:02.262Z,992.4891357
2024-04-15T18:05:02.629Z,992.4317017
2024-04-15T18:10:02.985Z,992.541748
2024-04-15T18:15:02.286Z,992.3980713
2024-04-15T18:20:02.638Z,992.5526733
2024-04-15T18:25:03.118Z,992.5429688
2024-04-15T18:30:02.607Z,992.6838989
2024-04-15T18:35:02.856Z,992.7092285
2024-04-15T18:40:03.147Z,992.6682739
2024-04-15T18:45:05.411Z,992.6280518
2024-04-15T18:50:02.240Z,992.6165771
2024-04-15T18:55:02.598Z,992.6710815
2024-04-15T19:00:03.069Z,992.7195435
2024-04-15T19:05:02.279Z,992.7288818
2024-04-15T19:10:02.705Z,992.758606
2024-04-15T19:15:13.083Z,992.949707
2024-04-15T19:20:03.381Z,992.8835449
2024-04-15T19:25:03.559Z,992.9202271
2024-04-15T19:30:03.454Z,992.928772
2024-04-15T19:35:02.774Z,992.8798218
2024-04-15T19:40:03.320Z,992.977356
2024-04-15T19:45:02.688Z,993.0061035
2024-04-15T19:50:03.047Z,992.9847412
2024-04-15T19:55:02.368Z,993.0105591
2024-04-15T20:00:02.737Z,993.0722046
2024-04-15T20:05:03.144Z,993.1063232
2024-04-15T20:10:02.715Z,993.0893555
2024-04-15T20:15:03.005Z,993.1709595
2024-04-15T20:20:02.336Z,993.1422119
2024-04-15T20:25:02.976Z,993.1339111
2024-04-15T20:30:02.370Z,993.081665
2024-04-15T20:35:02.762Z,993.0483398
2024-04-15T20:40:03.127Z,993.0689697
2024-04-15T20:45:02.604Z,992.8934326
2024-04-15T20:50:03.782Z,992.9763184
2024-04-15T20:55:03.291Z,993.0032959
2024-04-15T21:00:02.626Z,992.9902954
2024-04-15T21:05:03.109Z,993.0349731
2024-04-15T21:10:02.578Z,993.0841675
2024-04-15T21:15:03.053Z,992.9174805
2024-04-15T21:20:03.244Z,992.8894043
2024-04-15T21:25:03.648Z,992.8970337
2024-04-15T21:30:03.032Z,992.9291992
2024-04-15T21:35:02.428Z,993.085144
2024-04-15T21:40:02.813Z,993.118103
2024-04-15T21:50:02.957Z,993.1387329
2024-04-15T21:55:02.483Z,993.022522
2024-04-15T22:00:03.684Z,993.0657959
2024-04-15T22:05:05.033Z,993.1021118
2024-04-15T22:10:04.054Z,993.0869751
2024-04-15T22:15:03.974Z,993.1008301
2024-04-15T22:20:02.304Z,992.975769
2024-04-15T22:25:02.643Z,992.9486694
2024-04-15T22:30:03.066Z,992.9815674
2024-04-15T22:35:02.415Z,992.7758789
2024-04-15T22:40:03.342Z,992.8128052
2024-04-15T22:45:02.775Z,992.9003296
2024-04-15T22:50:03.268Z,992.9302979
2024-04-15T22:55:03.782Z,992.9603271
2024-04-15T23:00:04.161Z,992.8768921
2024-04-15T23:05:03.310Z,992.979248
2024-04-15T23:10:02.762Z,992.9675293
2024-04-15T23:15:03.258Z,993.0613403
2024-04-15T23:20:02.679Z,993.085022
2024-04-15T23:25:03.242Z,992.9838257
2024-04-15T23:30:02.470Z,992.8498535
2024-04-15T23:35:02.831Z,992.6953125
2024-04-15T23:40:03.281Z,992.8283691
2024-04-15T23:45:02.605Z,992.7069702
2024-04-15T23:50:02.948Z,992.630127
2024-04-15T23:55:02.204Z,992.5982666
